Time;durP1;ratioP1;P1;durP2;ratioP2;P2;SDS_P1;SDS_P2;PMS_P1;PMS_P2;Temp;Humidity;BMP_temperature;BMP_pressure;BME280_temperature;BME280_humidity;BME280_pressure;Samples;Min_cycle;Max_cycle;Signal;HPM_P1;HPM_P2
2021/06/21 00:01:43;;;;;;;6.43;5.83;;;;;;;22.15;57.06;99677.13;153997;1093;103070;-77
2021/06/21 00:04:49;;;;;;;6.90;6.20;;;;;;;22.12;57.27;99678.45;154019;1101;103141;-80
2021/06/21 00:07:54;;;;;;;7.10;6.40;;;;;;;22.13;57.17;99690.14;153910;1101;103192;-78
2021/06/21 00:10:59;;;;;;;7.23;6.53;;;;;;;22.09;57.33;99683.55;153989;1101;103125;-79
2021/06/21 00:14:04;;;;;;;7.18;6.58;;;;;;;22.08;57.30;99681.91;154004;1101;103278;-79
2021/06/21 00:17:10;;;;;;;7.27;6.53;;;;;;;22.04;57.46;99683.47;154101;1091;103192;-81
2021/06/21 00:20:17;;;;;;;7.40;6.70;;;;;;;22.04;57.79;99683.47;153970;1093;103221;-80
2021/06/21 00:23:23;;;;;;;9.10;6.83;;;;;;;21.98;57.62;99676.27;153961;1101;103150;-78
2021/06/21 00:26:28;;;;;;;7.70;7.00;;;;;;;21.93;57.71;99675.10;154033;1093;103112;-78
2021/06/21 00:29:33;;;;;;;6.70;6.10;;;;;;;21.88;57.91;99680.45;154204;1093;103272;-79
2021/06/21 00:32:39;;;;;;;8.10;7.30;;;;;;;21.86;57.96;99679.84;154185;1101;103217;-78
2021/06/21 00:35:44;;;;;;;7.70;6.98;;;;;;;21.83;58.24;99680.34;153948;1101;103142;-79
2021/06/21 00:38:49;;;;;;;7.57;6.87;;;;;;;21.80;58.26;99672.66;153962;1101;103189;-80
2021/06/21 00:41:55;;;;;;;8.27;7.13;;;;;;;21.79;58.05;99673.75;153994;1101;103230;-80
2021/06/21 00:45:00;;;;;;;7.93;7.20;;;;;;;21.78;58.34;99672.09;154195;1093;103201;-79
2021/06/21 00:48:06;;;;;;;9.10;6.80;;;;;;;21.77;58.26;99665.02;154157;1093;103215;-79
2021/06/21 00:51:12;;;;;;;6.53;5.90;;;;;;;21.77;58.63;99659.59;153967;1101;103123;-76
2021/06/21 00:54:17;;;;;;;8.17;6.50;;;;;;;21.80;58.36;99664.52;153937;1093;103183;-77
2021/06/21 00:57:22;;;;;;;7.30;6.60;;;;;;;21.81;58.36;99666.19;153974;1093;103217;-76
2021/06/21 01:00:29;;;;;;;8.48;6.40;;;;;;;21.79;58.46;99654.73;153979;1101;103167;-77
2021/06/21 01:03:34;;;;;;;7.00;6.40;;;;;;;21.80;58.33;99659.09;153946;1101;103134;-77
2021/06/21 01:06:39;;;;;;;7.07;6.40;;;;;;;21.78;58.50;99649.55;153972;1101;103104;-77
2021/06/21 01:09:45;;;;;;;7.77;6.73;;;;;;;21.74;58.65;99654.63;153941;1101;103238;-79
2021/06/21 01:13:28;;;;;;;6.90;6.20;;;;;;;21.70;58.79;99646.13;153972;1093;103139;-78
2021/06/21 01:16:38;;;;;;;6.80;6.20;;;;;;;21.75;58.90;99640.00;153993;1101;103182;-78
2021/06/21 01:20:26;;;;;;;7.33;6.47;;;;;;;21.72;58.83;99629.61;154002;1093;103121;-78
2021/06/21 01:24:27;;;;;;;8.43;6.38;;;;;;;21.64;58.95;99630.00;153844;1101;103283;-76
2021/06/21 01:27:45;;;;;;;7.63;6.88;;;;;;;21.58;58.83;99623.64;153820;1101;103154;-79
2021/06/21 01:31:03;;;;;;;7.20;6.25;;;;;;;21.52;59.08;99625.42;154020;1093;103192;-80
2021/06/21 01:34:08;;;;;;;8.33;6.87;;;;;;;21.46;59.06;99620.97;154130;1101;103160;-81
2021/06/21 01:37:15;;;;;;;9.93;6.90;;;;;;;21.45;59.28;99626.63;154376;1093;103235;-79
2021/06/21 01:40:23;;;;;;;7.37;6.40;;;;;;;21.42;59.58;99599.92;154486;1101;103218;-76
2021/06/21 01:43:31;;;;;;;7.08;6.03;;;;;;;21.42;59.45;99594.49;153921;1101;103141;-76
2021/06/21 01:46:40;;;;;;;7.93;5.90;;;;;;;21.43;59.33;99577.98;153990;1093;103144;-76
2021/06/21 01:49:49;;;;;;;7.00;6.38;;;;;;;21.45;59.51;99575.88;153935;1093;103250;-76
2021/06/21 01:53:02;;;;;;;8.20;6.27;;;;;;;21.44;59.36;99585.09;153983;1093;103214;-77
2021/06/21 01:56:11;;;;;;;9.43;6.48;;;;;;;21.44;59.12;99587.81;153974;1101;103220;-78
2021/06/21 01:59:17;;;;;;;6.90;6.25;;;;;;;21.44;59.60;99589.68;153983;1101;103563;-79
2021/06/21 02:02:24;;;;;;;7.95;6.50;;;;;;;21.41;59.44;99585.53;154023;1101;103192;-82
2021/06/21 02:05:33;;;;;;;7.17;6.47;;;;;;;21.37;59.62;99589.80;154149;1093;103281;-76
2021/06/21 02:08:40;;;;;;;7.33;6.70;;;;;;;21.35;59.48;99586.50;154028;1101;103192;-76
2021/06/21 02:11:46;;;;;;;8.30;6.70;;;;;;;21.31;59.64;99596.20;154097;1101;103196;-77
2021/06/21 02:14:52;;;;;;;7.60;6.90;;;;;;;21.46;60.64;99582.97;154005;1101;103110;-76
2021/06/21 02:17:58;;;;;;;8.90;6.28;;;;;;;21.78;60.56;99590.61;154165;1101;103141;-78
2021/06/21 02:21:04;;;;;;;6.77;5.80;;;;;;;22.07;59.71;99587.88;154013;1094;103256;-78
2021/06/21 02:24:10;;;;;;;6.93;6.23;;;;;;;22.16;59.58;99589.13;154072;1101;103160;-76
2021/06/21 02:27:16;;;;;;;7.10;6.40;;;;;;;22.32;59.73;99580.17;154010;1093;103186;-79
2021/06/21 02:30:23;;;;;;;7.53;6.63;;;;;;;22.56;59.80;99585.45;154051;1101;103190;-77
2021/06/21 02:33:28;;;;;;;8.53;6.63;;;;;;;22.68;59.18;99583.45;153992;1101;103189;-77
2021/06/21 02:36:33;;;;;;;7.40;6.60;;;;;;;22.69;59.38;99573.39;153960;1093;103285;-75
2021/06/21 02:39:38;;;;;;;7.43;6.37;;;;;;;22.74;59.44;99582.45;153990;1093;103102;-76
2021/06/21 02:42:44;;;;;;;6.25;5.65;;;;;;;22.82;59.25;99583.11;153938;1101;103190;-77
2021/06/21 02:45:49;;;;;;;6.93;6.33;;;;;;;22.87;58.89;99588.63;153954;1093;103485;-77
2021/06/21 02:48:55;;;;;;;7.98;6.23;;;;;;;22.96;58.95;99598.02;154002;1093;103730;-78
2021/06/21 02:52:10;;;;;;;7.43;6.63;;;;;;;23.02;58.67;99587.99;154272;1093;103224;-76
2021/06/21 02:55:20;;;;;;;7.93;6.30;;;;;;;22.81;58.64;99595.08;154019;1101;103107;-75
2021/06/21 02:58:28;;;;;;;6.87;6.17;;;;;;;22.64;58.63;99595.09;154004;1101;103100;-77
2021/06/21 03:01:35;;;;;;;7.35;6.30;;;;;;;22.48;58.74;99602.16;153968;1101;103132;-74
2021/06/21 03:04:42;;;;;;;7.37;6.07;;;;;;;22.37;58.84;99600.38;154019;1093;103189;-75
2021/06/21 03:07:49;;;;;;;7.50;6.70;;;;;;;22.25;58.97;99608.58;154028;1101;103267;-76
2021/06/21 03:10:55;;;;;;;7.77;6.87;;;;;;;22.11;59.01;99611.61;154253;1101;103193;-75
2021/06/21 03:14:01;;;;;;;10.05;6.60;;;;;;;22.05;59.34;99614.47;154046;1101;103122;-76
2021/06/21 03:17:08;;;;;;;7.10;6.37;;;;;;;21.96;59.20;99619.48;154113;1101;103186;-76
2021/06/21 03:20:15;;;;;;;7.85;6.78;;;;;;;22.02;59.28;99620.38;154125;1101;103132;-74
2021/06/21 03:23:24;;;;;;;7.43;6.63;;;;;;;22.05;59.41;99611.75;153983;1093;103564;-75
2021/06/21 03:26:31;;;;;;;6.33;5.80;;;;;;;22.26;59.13;99615.68;154054;1093;103236;-76
2021/06/21 03:29:38;;;;;;;6.73;6.03;;;;;;;22.50;59.06;99611.73;154018;1094;103230;-76
2021/06/21 03:32:45;;;;;;;7.50;6.35;;;;;;;22.72;58.83;99608.27;153927;1101;103191;-76
2021/06/21 03:35:51;;;;;;;7.05;6.10;;;;;;;22.90;58.96;99613.44;154011;1093;103141;-77
2021/06/21 03:38:56;;;;;;;7.60;5.93;;;;;;;23.10;58.75;99618.36;153972;1093;103253;-76
2021/06/21 03:42:02;;;;;;;6.53;5.93;;;;;;;23.24;58.68;99604.39;154023;1101;103197;-78
2021/06/21 03:45:10;;;;;;;6.10;5.60;;;;;;;23.41;58.44;99605.15;153977;1094;103127;-77
2021/06/21 03:48:16;;;;;;;6.60;6.00;;;;;;;23.63;58.45;99609.75;153931;1093;103139;-74
2021/06/21 03:51:21;;;;;;;7.17;5.93;;;;;;;23.77;58.22;99610.17;153951;1093;103096;-75
2021/06/21 03:54:26;;;;;;;6.50;5.35;;;;;;;23.95;58.30;99589.97;153993;1101;103248;-76
2021/06/21 03:57:31;;;;;;;6.37;5.77;;;;;;;24.13;58.61;99589.58;153934;1101;103590;-76
2021/06/21 04:00:38;;;;;;;7.17;6.30;;;;;;;24.30;58.39;99590.27;153971;1094;103198;-77
2021/06/21 04:03:43;;;;;;;6.70;5.80;;;;;;;24.44;58.28;99592.56;153970;1093;103150;-76
2021/06/21 04:06:48;;;;;;;6.75;5.90;;;;;;;24.61;58.66;99587.81;153986;1101;103116;-76
2021/06/21 04:09:53;;;;;;;5.80;5.30;;;;;;;24.80;58.50;99595.58;153987;1101;103262;-75
2021/06/21 04:12:58;;;;;;;7.63;5.38;;;;;;;25.06;58.38;99597.38;153996;1093;103195;-75
2021/06/21 04:16:04;;;;;;;6.63;5.50;;;;;;;25.31;57.94;99601.36;154076;1101;103107;-77
2021/06/21 04:19:09;;;;;;;6.90;5.25;;;;;;;25.53;57.57;99606.61;153959;1093;103107;-75
2021/06/21 04:22:14;;;;;;;6.10;5.50;;;;;;;25.74;57.53;99604.77;153940;1093;103227;-75
2021/06/21 04:25:21;;;;;;;5.60;5.10;;;;;;;25.92;57.39;99600.73;154013;1093;103201;-73
2021/06/21 04:28:26;;;;;;;6.95;5.50;;;;;;;26.13;57.16;99600.77;153978;1093;103211;-73
2021/06/21 04:31:32;;;;;;;5.63;5.03;;;;;;;26.31;56.69;99602.97;153992;1094;103128;-72
2021/06/21 04:34:37;;;;;;;5.20;4.70;;;;;;;26.48;56.51;99602.67;153973;1093;103219;-79
2021/06/21 04:37:42;;;;;;;6.70;5.17;;;;;;;26.63;56.49;99608.16;153974;1094;103233;-79
2021/06/21 04:40:47;;;;;;;7.20;5.70;;;;;;;26.73;56.37;99598.30;153974;1093;103270;-79
2021/06/21 04:43:52;;;;;;;6.07;5.17;;;;;;;26.81;56.10;99605.94;154024;1101;103246;-79
2021/06/21 04:46:57;;;;;;;5.73;4.88;;;;;;;26.88;56.02;99606.48;153961;1101;103166;-79
2021/06/21 04:50:08;;;;;;;5.38;4.85;;;;;;;26.94;55.69;99599.89;154041;1094;103190;-79
2021/06/21 04:53:14;;;;;;;5.45;4.83;;;;;;;27.01;55.70;99607.83;154001;1095;103119;-78
2021/06/21 04:56:20;;;;;;;6.17;4.40;;;;;;;27.06;55.30;99613.31;154237;1093;103164;-78
2021/06/21 04:59:25;;;;;;;5.67;4.90;;;;;;;27.14;54.96;99623.68;154180;1093;103104;-78
2021/06/21 05:02:30;;;;;;;6.15;5.40;;;;;;;27.16;55.36;99617.94;154013;1101;103188;-78
2021/06/21 05:05:37;;;;;;;5.40;4.60;;;;;;;27.16;55.07;99612.45;154079;1101;103112;-79
2021/06/21 05:08:42;;;;;;;5.80;5.30;;;;;;;27.26;54.84;99609.70;154120;1093;103150;-80
2021/06/21 05:11:47;;;;;;;5.65;4.98;;;;;;;27.31;54.34;99609.69;154030;1101;103217;-79
2021/06/21 05:14:53;;;;;;;5.35;4.70;;;;;;;27.39;54.06;99611.03;153978;1101;103107;-79
2021/06/21 05:17:58;;;;;;;6.60;5.10;;;;;;;27.47;53.99;99618.66;153949;1101;103544;-79
2021/06/21 05:21:03;;;;;;;10.57;5.97;;;;;;;27.49;53.91;99626.61;153997;1093;103179;-79
2021/06/21 05:24:08;;;;;;;6.88;5.70;;;;;;;27.50;53.85;99620.01;153969;1101;103212;-80
2021/06/21 05:27:13;;;;;;;5.53;5.03;;;;;;;27.45;54.07;99629.08;154003;1101;103222;-79
2021/06/21 05:30:20;;;;;;;6.70;4.93;;;;;;;27.49;53.74;99626.61;154111;1094;103218;-80
2021/06/21 05:33:26;;;;;;;9.23;5.53;;;;;;;27.54;53.47;99619.19;154225;1093;103223;-80
2021/06/21 05:36:31;;;;;;;6.13;4.90;;;;;;;27.57;52.93;99621.34;154055;1101;103214;-79
2021/06/21 05:39:36;;;;;;;9.45;4.88;;;;;;;27.60;53.61;99617.23;154034;1101;103361;-79
2021/06/21 05:42:41;;;;;;;9.03;5.33;;;;;;;27.63;53.43;99615.84;154215;1093;103470;-79
2021/06/21 05:45:46;;;;;;;5.73;4.48;;;;;;;27.65;52.92;99608.97;154118;1093;103240;-79
2021/06/21 05:48:51;;;;;;;6.27;4.70;;;;;;;27.71;52.96;99618.80;154056;1093;103196;-79
2021/06/21 05:51:56;;;;;;;7.50;5.10;;;;;;;27.75;53.36;99603.45;154211;1101;103200;-79
2021/06/21 05:55:01;;;;;;;7.25;4.93;;;;;;;27.70;53.29;99605.41;154074;1101;103150;-80
2021/06/21 05:58:07;;;;;;;5.85;4.75;;;;;;;27.65;53.21;99599.94;154144;1096;103219;-80
2021/06/21 06:01:12;;;;;;;6.55;4.93;;;;;;;27.63;53.34;99596.66;154245;1101;103139;-79
2021/06/21 06:04:17;;;;;;;7.90;5.15;;;;;;;27.58;53.41;99592.85;154065;1101;103123;-80
2021/06/21 06:07:23;;;;;;;6.67;5.03;;;;;;;27.57;53.47;99585.72;153935;1096;103103;-80
2021/06/21 06:10:29;;;;;;;8.63;5.20;;;;;;;27.58;53.33;99581.05;153980;1101;103243;-80
2021/06/21 06:13:36;;;;;;;6.18;5.05;;;;;;;27.58;53.28;99586.53;153953;1101;103264;-80
2021/06/21 06:16:41;;;;;;;6.58;4.85;;;;;;;27.55;53.16;99584.38;154169;1101;103182;-80
2021/06/21 06:19:46;;;;;;;7.30;4.70;;;;;;;27.53;53.54;99568.20;154078;1096;103214;-80
2021/06/21 06:22:52;;;;;;;6.87;4.60;;;;;;;27.55;53.67;99581.63;154020;1101;103186;-80
2021/06/21 06:25:57;;;;;;;8.93;5.10;;;;;;;27.54;53.35;99571.75;154163;1096;103245;-80
2021/06/21 06:29:02;;;;;;;6.70;4.70;;;;;;;27.52;53.14;99587.66;154099;1101;103205;-80
2021/06/21 06:32:08;;;;;;;5.50;4.20;;;;;;;27.54;53.60;99575.34;154122;1101;103311;-80
2021/06/21 06:35:16;;;;;;;7.43;4.20;;;;;;;27.58;53.50;99575.56;154039;1096;103187;-79
2021/06/21 06:38:21;;;;;;;9.17;4.80;;;;;;;27.63;53.49;99572.81;153994;1095;103427;-80
2021/06/21 06:41:26;;;;;;;7.40;4.60;;;;;;;27.69;53.34;99566.19;153983;1101;103259;-80
2021/06/21 06:44:32;;;;;;;8.33;4.70;;;;;;;27.72;53.00;99576.59;154057;1096;103221;-80
2021/06/21 06:47:37;;;;;;;10.30;4.33;;;;;;;27.72;52.73;99578.52;154128;1095;103126;-80
2021/06/21 06:50:42;;;;;;;7.63;3.75;;;;;;;27.72;52.18;99573.86;154008;1101;103193;-80
2021/06/21 06:53:50;;;;;;;7.43;3.60;;;;;;;27.72;52.33;99571.11;154090;1101;103200;-80
2021/06/21 06:57:01;;;;;;;8.67;4.00;;;;;;;27.75;52.35;99570.56;154131;1101;103262;-79
2021/06/21 07:00:10;;;;;;;10.43;4.17;;;;;;;27.79;52.18;99577.11;154186;1101;103184;-80
2021/06/21 07:03:15;;;;;;;9.43;3.60;;;;;;;27.85;52.40;99574.31;154156;1101;103211;-80
2021/06/21 07:06:20;;;;;;;9.60;3.37;;;;;;;27.88;51.73;99573.75;154130;1101;103131;-80
2021/06/21 07:09:28;;;;;;;9.23;3.67;;;;;;;27.86;51.09;99563.06;154242;1101;103187;-80
2021/06/21 07:12:33;;;;;;;13.75;3.80;;;;;;;27.88;51.01;99562.79;154307;1096;103245;-80
2021/06/21 07:15:39;;;;;;;7.63;3.27;;;;;;;27.91;50.91;99556.78;154321;1096;103252;-80
2021/06/21 07:18:44;;;;;;;7.43;3.20;;;;;;;27.95;50.84;99566.06;154284;1096;103122;-80
2021/06/21 07:21:50;;;;;;;9.63;3.05;;;;;;;27.98;50.00;99565.48;154238;1101;103547;-80
2021/06/21 07:24:55;;;;;;;8.10;3.30;;;;;;;28.04;50.48;99569.81;154425;1101;103110;-80
2021/06/21 07:28:00;;;;;;;6.60;3.10;;;;;;;28.09;50.06;99564.30;154454;1101;103123;-80
2021/06/21 07:31:05;;;;;;;10.53;3.47;;;;;;;28.14;50.26;99569.75;154456;1101;103256;-80
2021/06/21 07:34:11;;;;;;;8.00;3.50;;;;;;;28.16;49.81;99564.80;154444;1101;103119;-80
2021/06/21 07:37:16;;;;;;;9.07;3.60;;;;;;;28.19;49.79;99572.44;154409;1101;103211;-80
2021/06/21 07:40:21;;;;;;;8.30;3.20;;;;;;;28.22;49.45;99573.00;154410;1096;103107;-80
2021/06/21 07:43:26;;;;;;;11.63;3.20;;;;;;;28.28;49.34;99580.07;154497;1101;103553;-80
2021/06/21 07:46:33;;;;;;;8.53;3.30;;;;;;;28.33;49.21;99575.36;154482;1101;103173;-80
2021/06/21 07:49:38;;;;;;;8.70;3.47;;;;;;;28.38;49.24;99577.23;154506;1096;103104;-80
2021/06/21 07:52:43;;;;;;;7.37;3.37;;;;;;;28.42;49.19;99570.05;154614;1101;103154;-80
2021/06/21 07:55:48;;;;;;;8.75;3.30;;;;;;;28.49;49.34;99572.48;154518;1096;103125;-80
2021/06/21 07:58:54;;;;;;;11.03;3.10;;;;;;;28.55;48.97;99566.67;154500;1101;103199;-80
2021/06/21 08:01:59;;;;;;;12.40;3.07;;;;;;;28.58;47.59;99560.61;154587;1096;103144;-80
2021/06/21 08:05:04;;;;;;;8.03;2.73;;;;;;;28.58;48.18;99566.10;154681;1096;103141;-80
2021/06/21 08:08:09;;;;;;;9.53;3.40;;;;;;;28.62;47.75;99560.02;154662;1101;103118;-80
2021/06/21 08:11:15;;;;;;;8.57;2.97;;;;;;;28.68;47.56;99569.86;154845;1101;103136;-80
2021/06/21 08:14:20;;;;;;;6.93;2.37;;;;;;;28.72;47.99;99557.19;154721;1101;103103;-79
2021/06/21 08:17:25;;;;;;;8.53;3.07;;;;;;;28.78;47.63;99562.31;154737;1096;103164;-79
2021/06/21 08:20:30;;;;;;;8.37;2.63;;;;;;;28.84;47.31;99556.78;154683;1101;103103;-80
2021/06/21 08:23:35;;;;;;;7.93;2.80;;;;;;;28.83;46.87;99558.72;154775;1095;103104;-79
2021/06/21 08:26:41;;;;;;;10.03;2.53;;;;;;;28.82;46.46;99559.81;154561;1096;104134;-79
2021/06/21 08:29:47;;;;;;;10.33;2.57;;;;;;;28.88;46.33;99558.64;154627;1096;103229;-80
2021/06/21 08:32:52;;;;;;;8.60;2.58;;;;;;;28.93;46.61;99550.35;154722;1096;103192;-80
2021/06/21 08:35:57;;;;;;;8.53;2.40;;;;;;;29.02;46.65;99557.94;154903;1101;103480;-80
2021/06/21 08:39:02;;;;;;;10.43;2.80;;;;;;;29.04;46.49;99556.52;154553;1091;103192;-80
2021/06/21 08:42:08;;;;;;;7.77;2.40;;;;;;;29.00;46.05;99547.23;154743;1101;103114;-80
2021/06/21 08:45:15;;;;;;;11.37;2.40;;;;;;;29.01;45.10;99540.65;154528;1093;103124;-80
2021/06/21 08:48:21;;;;;;;10.90;2.60;;;;;;;29.04;45.36;99547.47;154679;1101;103174;-80
2021/06/21 08:51:27;;;;;;;9.07;2.40;;;;;;;29.04;44.48;99541.98;154746;1093;103222;-80
2021/06/21 08:54:32;;;;;;;9.67;3.10;;;;;;;29.03;44.84;99532.13;154791;1093;103125;-80
2021/06/21 08:57:41;;;;;;;12.60;2.63;;;;;;;29.09;44.54;99539.18;154544;1094;103190;-80
2021/06/21 09:00:46;;;;;;;10.53;2.90;;;;;;;29.14;44.24;99539.97;154725;1096;103216;-79
2021/06/21 09:03:52;;;;;;;9.90;3.20;;;;;;;29.15;44.17;99540.78;154732;1096;103218;-80
2021/06/21 09:07:17;;;;;;;10.50;2.80;;;;;;;29.19;44.80;99525.34;154804;1094;103119;-80
2021/06/21 09:10:27;;;;;;;7.17;2.47;;;;;;;29.27;44.47;99527.42;154723;1101;103186;-80
2021/06/21 09:13:36;;;;;;;9.57;2.40;;;;;;;29.31;44.05;99533.98;154689;1096;103121;-79
2021/06/21 09:16:48;;;;;;;9.70;2.67;;;;;;;29.39;43.08;99523.42;154814;1096;103314;-79
2021/06/21 09:19:56;;;;;;;10.10;2.40;;;;;;;29.42;42.86;99534.64;154650;1096;103195;-79
2021/06/21 09:23:04;;;;;;;8.68;2.35;;;;;;;29.42;43.24;99537.39;154598;1101;103184;-80
2021/06/21 09:26:20;;;;;;;8.97;2.70;;;;;;;29.42;43.08;99529.15;154745;1095;103142;-80
2021/06/21 09:29:40;;;;;;;12.63;2.67;;;;;;;29.45;43.43;99536.81;154764;1101;103190;-79
2021/06/21 09:32:48;;;;;;;10.10;2.20;;;;;;;29.55;42.85;99538.59;154774;1101;103121;-79
2021/06/21 09:35:53;;;;;;;9.07;2.10;;;;;;;29.61;43.18;99531.91;154652;1101;103270;-80
2021/06/21 09:39:21;;;;;;;16.25;2.90;;;;;;;29.70;42.40;99532.88;154665;1101;103144;-79
2021/06/21 09:42:27;;;;;;;12.20;3.20;;;;;;;29.81;42.59;99530.80;154664;1101;103115;-79
2021/06/21 09:45:32;;;;;;;9.50;2.40;;;;;;;29.81;42.42;99530.80;154543;1093;103096;-79
2021/06/21 09:48:39;;;;;;;17.10;2.60;;;;;;;29.86;42.95;99543.67;154721;1094;103131;-80
2021/06/21 09:51:44;;;;;;;10.30;2.45;;;;;;;29.87;42.08;99537.03;154534;1093;103265;-80
2021/06/21 09:54:50;;;;;;;12.30;2.23;;;;;;;29.91;41.74;99529.84;154690;1101;103144;-79
2021/06/21 09:58:13;;;;;;;10.23;2.40;;;;;;;29.96;41.97;99535.25;154622;1101;103125;-79
2021/06/21 10:01:19;;;;;;;10.77;2.33;;;;;;;30.00;41.26;99536.28;154600;1101;103192;-79
2021/06/21 10:04:28;;;;;;;14.13;2.73;;;;;;;29.96;41.86;99535.25;154673;1096;103095;-79
2021/06/21 10:07:35;;;;;;;13.20;2.60;;;;;;;30.00;42.06;99521.72;154704;1101;103265;-80
2021/06/21 10:10:41;;;;;;;16.37;3.00;;;;;;;30.08;41.43;99523.77;154677;1096;103136;-80
2021/06/21 10:13:46;;;;;;;12.57;2.93;;;;;;;30.14;41.43;99523.40;155014;1101;103135;-79
2021/06/21 10:16:53;;;;;;;11.25;2.70;;;;;;;30.18;41.29;99517.28;155369;1101;103115;-79
2021/06/21 10:19:59;;;;;;;9.80;2.27;;;;;;;30.26;41.27;99513.85;155751;1101;103129;-79
2021/06/21 10:23:07;;;;;;;10.43;2.70;;;;;;;30.30;40.52;99517.63;155472;1096;103284;-80
2021/06/21 10:26:13;;;;;;;10.90;2.70;;;;;;;30.36;40.41;99519.20;155598;1101;103128;-79
2021/06/21 10:29:18;;;;;;;8.17;2.27;;;;;;;30.43;40.20;99519.63;154473;1096;103240;-80
2021/06/21 10:32:24;;;;;;;12.07;2.33;;;;;;;30.50;40.42;99508.20;154577;1101;103190;-79
2021/06/21 10:35:32;;;;;;;9.00;2.50;;;;;;;30.54;39.65;99503.72;154531;1096;103284;-79
2021/06/21 10:38:38;;;;;;;10.50;2.53;;;;;;;30.58;39.29;99512.19;154519;1096;103260;-79
2021/06/21 10:41:46;;;;;;;8.45;2.35;;;;;;;30.65;39.34;99509.85;154584;1096;103121;-79
2021/06/21 10:44:56;;;;;;;6.28;2.20;;;;;;;30.69;39.48;99511.67;154499;1101;103112;-79
2021/06/21 10:48:15;;;;;;;9.63;2.70;;;;;;;30.76;39.28;99499.47;154658;1096;103122;-79
2021/06/21 10:51:32;;;;;;;9.27;1.97;;;;;;;30.80;38.12;99500.48;154426;1101;103122;-79
2021/06/21 10:54:37;;;;;;;10.00;2.40;;;;;;;30.83;38.60;99503.44;154530;1101;103369;-79
2021/06/21 10:57:42;;;;;;;10.43;2.60;;;;;;;30.85;38.43;99492.93;154592;1101;103159;-79
2021/06/21 11:00:49;;;;;;;11.17;2.43;;;;;;;30.88;38.71;99486.79;154343;1101;103146;-80
2021/06/21 11:03:54;;;;;;;11.40;2.30;;;;;;;30.93;38.25;99491.42;154376;1096;103101;-79
2021/06/21 11:07:12;;;;;;;9.27;2.40;;;;;;;30.97;38.12;99491.59;154576;1096;103687;-79
2021/06/21 11:10:31;;;;;;;12.73;2.28;;;;;;;31.02;37.89;99480.48;154282;1101;103260;-80
2021/06/21 11:13:45;;;;;;;10.00;2.70;;;;;;;31.05;37.53;99475.17;154254;1096;103199;-79
2021/06/21 11:16:52;;;;;;;8.33;2.17;;;;;;;31.09;38.08;99476.19;154212;1096;103125;-80
2021/06/21 11:19:58;;;;;;;10.23;2.90;;;;;;;31.07;37.33;99461.91;154290;1101;103123;-79
2021/06/21 11:23:05;;;;;;;6.98;2.23;;;;;;;31.09;37.53;99473.42;154247;1095;103210;-79
2021/06/21 11:26:10;;;;;;;9.53;2.20;;;;;;;31.16;37.24;99458.41;154217;1096;103131;-80
2021/06/21 11:33:11;;;;;;;9.00;2.20;;;;;;;31.20;35.99;99451.98;154123;1090;103118;-80
2021/06/21 11:36:14;;;;;;;6.73;2.33;;;;;;;31.12;35.77;99463.72;154145;1096;103115;-80
2021/06/21 11:39:23;;;;;;;5.70;2.25;;;;;;;31.14;36.22;99463.41;154184;1101;103212;-80
2021/06/21 11:42:27;;;;;;;8.27;2.17;;;;;;;31.18;35.85;99456.16;154201;1097;103189;-80
2021/06/21 11:45:52;;;;;;;7.60;2.00;;;;;;;31.22;36.20;99455.24;154149;1097;103288;-78
2021/06/21 11:49:05;;;;;;;7.10;2.00;;;;;;;31.28;36.21;99459.50;154019;1101;103122;-78
2021/06/21 11:52:08;;;;;;;9.00;2.10;;;;;;;31.28;36.29;99448.48;154252;1101;103128;-79
2021/06/21 11:55:17;;;;;;;6.97;2.10;;;;;;;31.30;36.10;99448.98;154015;1096;103193;-78
2021/06/21 11:58:31;;;;;;;5.10;1.80;;;;;;;31.36;36.04;99448.88;154091;1101;103288;-78
2021/06/21 12:01:34;;;;;;;9.05;2.15;;;;;;;31.41;35.51;99454.25;154073;1095;103256;-79
2021/06/21 12:04:38;;;;;;;8.50;2.37;;;;;;;31.44;35.82;99453.63;154156;1101;103133;-78
2021/06/21 12:07:43;;;;;;;8.03;2.40;;;;;;;31.46;35.64;99448.66;154071;1101;103100;-78
2021/06/21 12:10:46;;;;;;;6.33;2.20;;;;;;;31.47;35.69;99433.75;154166;1101;103563;-78
2021/06/21 12:13:57;;;;;;;6.33;1.83;;;;;;;31.44;35.26;99437.09;154004;1101;103270;-78
2021/06/21 12:17:07;;;;;;;8.20;2.17;;;;;;;31.40;35.31;99441.61;154054;1101;103259;-79
2021/06/21 12:20:15;;;;;;;6.47;1.93;;;;;;;31.36;35.91;99432.34;154112;1101;103119;-79
2021/06/21 12:23:18;;;;;;;8.50;2.30;;;;;;;31.35;35.02;99436.20;154110;1097;103279;-79
2021/06/21 12:26:21;;;;;;;6.35;1.90;;;;;;;31.34;34.95;99423.56;154230;1095;103194;-79
2021/06/21 12:29:32;;;;;;;5.73;1.90;;;;;;;31.29;33.75;99425.31;154061;1101;103128;-79
2021/06/21 12:32:35;;;;;;;7.33;2.00;;;;;;;31.21;33.40;99428.80;154057;1096;103288;-79
2021/06/21 12:35:38;;;;;;;6.97;2.00;;;;;;;31.20;34.60;99429.09;154095;1101;103141;-80
2021/06/21 12:38:44;;;;;;;7.23;2.00;;;;;;;31.23;35.22;99417.46;154158;1096;103107;-80
2021/06/21 12:41:49;;;;;;;6.60;2.17;;;;;;;31.31;35.09;99428.58;154138;1101;103147;-79
2021/06/21 12:44:52;;;;;;;10.43;1.97;;;;;;;31.33;34.70;99417.21;154069;1095;103240;-79
2021/06/21 12:47:56;;;;;;;9.80;1.70;;;;;;;31.36;34.78;99424.06;154097;1101;103249;-80
2021/06/21 12:50:59;;;;;;;4.73;1.80;;;;;;;31.39;34.78;99417.91;154205;1096;103125;-79
2021/06/21 12:54:02;;;;;;;6.73;1.70;;;;;;;31.39;34.41;99418.75;154181;1101;103148;-79
2021/06/21 12:57:06;;;;;;;6.03;1.70;;;;;;;31.38;34.18;99408.83;154071;1096;103589;-79
2021/06/21 13:00:11;;;;;;;6.40;1.70;;;;;;;31.37;34.20;99414.66;154197;1097;103277;-79
2021/06/21 13:03:17;;;;;;;6.27;1.60;;;;;;;31.41;34.28;99407.38;153993;1096;103225;-79
2021/06/21 13:06:35;;;;;;;6.90;1.77;;;;;;;31.43;33.82;99413.39;154036;1096;103114;-79
2021/06/21 13:09:46;;;;;;;6.90;1.70;;;;;;;31.42;33.84;99390.53;154105;1101;103128;-79
2021/06/21 13:12:55;;;;;;;4.43;1.60;;;;;;;31.37;33.79;99398.11;154053;1096;103218;-78
2021/06/21 13:16:09;;;;;;;5.87;1.77;;;;;;;31.35;33.61;99394.86;154097;1101;103283;-79
2021/06/21 13:19:14;;;;;;;4.47;1.50;;;;;;;31.36;33.98;99385.47;154012;1097;103292;-79
2021/06/21 13:22:28;;;;;;;5.23;1.70;;;;;;;31.36;33.38;99388.23;154120;1101;103200;-79
2021/06/21 13:25:33;;;;;;;4.47;1.43;;;;;;;31.36;33.64;99386.28;154030;1101;103093;-79
2021/06/21 13:28:42;;;;;;;3.37;1.40;;;;;;;31.41;33.45;99388.92;154065;1101;103135;-79
2021/06/21 13:31:46;;;;;;;2.30;1.27;;;;;;;31.40;33.56;99383.72;153963;1101;103578;-79
2021/06/21 13:34:50;;;;;;;2.77;1.37;;;;;;;31.34;33.75;99387.73;154198;1101;103175;-79
2021/06/21 13:37:53;;;;;;;5.03;1.47;;;;;;;31.35;33.33;99370.05;154091;1101;103213;-79
2021/06/21 13:40:57;;;;;;;6.43;1.57;;;;;;;31.43;33.47;99361.85;154048;1101;103209;-79
2021/06/21 13:44:11;;;;;;;4.47;1.63;;;;;;;31.44;33.08;99357.95;154156;1101;103115;-79
2021/06/21 13:47:30;;;;;;;4.90;1.80;;;;;;;31.44;32.94;99365.41;154209;1101;103366;-79
2021/06/21 13:50:37;;;;;;;6.57;1.40;;;;;;;31.43;33.14;99366.53;154313;1095;103254;-79
2021/06/21 13:53:40;;;;;;;5.00;1.50;;;;;;;31.41;32.84;99366.03;154149;1101;103200;-79
2021/06/21 13:56:43;;;;;;;5.20;1.70;;;;;;;31.40;32.92;99364.42;154125;1097;103197;-76
2021/06/21 13:59:48;;;;;;;5.50;1.53;;;;;;;31.40;32.56;99356.95;154002;1093;103118;-75
2021/06/21 14:02:51;;;;;;;6.63;1.53;;;;;;;31.45;32.45;99356.84;154065;1101;103200;-75
2021/06/21 14:05:56;;;;;;;4.35;1.60;;;;;;;31.45;32.71;99356.03;153993;1101;103192;-77
2021/06/21 14:09:00;;;;;;;2.70;1.20;;;;;;;31.52;32.68;99352.84;154036;1101;103216;-75
2021/06/21 14:12:04;;;;;;;3.50;1.40;;;;;;;31.53;32.39;99363.56;154035;1093;103291;-76
2021/06/21 14:15:10;;;;;;;4.17;1.50;;;;;;;31.57;32.04;99367.31;153953;1093;103187;-76
2021/06/21 14:18:14;;;;;;;5.80;1.50;;;;;;;31.57;32.22;99367.31;154067;1101;103189;-75
2021/06/21 14:21:18;;;;;;;4.90;1.40;;;;;;;31.58;32.23;99366.17;154005;1101;103214;-75
2021/06/21 14:24:21;;;;;;;5.40;1.20;;;;;;;31.59;32.18;99361.49;154266;1093;103193;-78